Time;durP1;ratioP1;P1;durP2;ratioP2;P2;SDS_P1;SDS_P2;PMS_P1;PMS_P2;Temp;Humidity;BMP_temperature;BMP_pressure;BME280_temperature;BME280_humidity;BME280_pressure;Samples;Min_cycle;Max_cycle;Signal;HPM_P1;HPM_P2
2022/09/04 00:02:17;;;;;;;15.13;12.43;;;;;;;;;;754375;182;816639;-56
2022/09/04 00:04:43;;;;;;;20.70;14.03;;;;;;;;;;749606;183;871517;-55
2022/09/04 00:07:16;;;;;;;17.73;13.93;;;;;;;;;;756014;184;817500;-56
2022/09/04 00:09:57;;;;;;;17.20;13.27;;;;;;;;;;757982;184;919910;-55
2022/09/04 00:12:22;;;;;;;19.20;13.70;;;;;;;;;;754417;184;919292;-55
2022/09/04 00:14:48;;;;;;;16.60;13.23;;;;;;;;;;746514;185;918859;-56
2022/09/04 00:17:29;;;;;;;16.97;13.60;;;;;;;;;;754098;183;881231;-55
2022/09/04 00:19:58;;;;;;;15.93;13.80;;;;;;;;;;757517;184;919004;-55
2022/09/04 00:22:40;;;;;;;16.77;13.30;;;;;;;;;;758086;183;918429;-55
2022/09/04 00:25:06;;;;;;;18.23;13.83;;;;;;;;;;751859;185;922684;-54
2022/09/04 00:27:31;;;;;;;14.70;12.50;;;;;;;;;;755381;182;919351;-56
2022/09/04 00:30:02;;;;;;;16.00;12.90;;;;;;;;;;752046;181;917630;-56
2022/09/04 00:32:33;;;;;;;18.67;12.27;;;;;;;;;;750995;183;919604;-55
2022/09/04 00:35:02;;;;;;;16.40;13.00;;;;;;;;;;752914;184;919289;-54
2022/09/04 00:37:30;;;;;;;18.10;14.43;;;;;;;;;;754370;183;818703;-55
2022/09/04 00:40:08;;;;;;;16.87;13.07;;;;;;;;;;755535;184;920202;-56
2022/09/04 00:42:48;;;;;;;17.80;14.00;;;;;;;;;;756821;185;919792;-55
2022/09/04 00:45:18;;;;;;;18.10;14.87;;;;;;;;;;748366;184;922516;-56
2022/09/04 00:48:03;;;;;;;15.00;12.70;;;;;;;;;;751044;185;920449;-56
2022/09/04 00:50:32;;;;;;;15.77;13.53;;;;;;;;;;742353;185;918348;-56
2022/09/04 00:53:03;;;;;;;16.27;13.30;;;;;;;;;;758233;182;919658;-56
2022/09/04 00:55:35;;;;;;;17.30;13.30;;;;;;;;;;756585;184;919132;-56
2022/09/04 00:58:20;;;;;;;22.40;13.87;;;;;;;;;;753036;184;919293;-55
2022/09/04 01:00:46;;;;;;;18.07;14.57;;;;;;;;;;757255;182;919869;-57
2022/09/04 01:03:15;;;;;;;17.70;14.40;;;;;;;;;;746539;184;919518;-55
2022/09/04 01:05:47;;;;;;;22.27;15.27;;;;;;;;;;761106;184;918695;-56
2022/09/04 01:08:14;;;;;;;16.93;12.93;;;;;;;;;;756138;185;917335;-55
2022/09/04 01:10:46;;;;;;;17.57;13.87;;;;;;;;;;750236;185;920139;-56
2022/09/04 01:13:12;;;;;;;17.75;13.20;;;;;;;;;;753131;184;918827;-55
2022/09/04 01:15:40;;;;;;;19.13;15.30;;;;;;;;;;760524;184;918740;-55
2022/09/04 01:18:06;;;;;;;20.48;15.77;;;;;;;;;;758922;184;928852;-55
2022/09/04 01:20:31;;;;;;;17.47;14.27;;;;;;;;;;751559;183;917076;-55
2022/09/04 01:22:58;;;;;;;22.50;14.07;;;;;;;;;;745686;185;917419;-54
2022/09/04 01:25:29;;;;;;;19.20;15.10;;;;;;;;;;759969;184;919443;-55
2022/09/04 01:27:55;;;;;;;23.00;13.93;;;;;;;;;;751089;185;913387;-56
2022/09/04 01:30:21;;;;;;;20.33;14.40;;;;;;;;;;761313;183;918199;-56
2022/09/04 01:33:06;;;;;;;18.17;14.10;;;;;;;;;;761383;183;919754;-55
2022/09/04 01:35:33;;;;;;;17.83;14.30;;;;;;;;;;753516;183;917624;-56
2022/09/04 01:38:01;;;;;;;18.17;14.00;;;;;;;;;;754530;183;916916;-56
2022/09/04 01:40:29;;;;;;;21.23;15.00;;;;;;;;;;752005;184;921408;-55
2022/09/04 01:42:58;;;;;;;19.30;14.80;;;;;;;;;;754760;184;919169;-55
2022/09/04 01:45:24;;;;;;;16.85;13.45;;;;;;;;;;753201;184;921757;-57
2022/09/04 01:47:50;;;;;;;19.70;14.67;;;;;;;;;;742440;185;917837;-55
2022/09/04 01:50:18;;;;;;;18.35;14.63;;;;;;;;;;748444;186;919042;-56
2022/09/04 01:52:44;;;;;;;18.87;16.20;;;;;;;;;;758923;184;904986;-55
2022/09/04 01:55:11;;;;;;;19.57;16.10;;;;;;;;;;752930;185;919005;-55
2022/09/04 01:57:40;;;;;;;21.53;15.47;;;;;;;;;;757715;184;919752;-55
2022/09/04 02:00:07;;;;;;;26.23;15.30;;;;;;;;;;755327;185;922672;-55
2022/09/04 02:02:40;;;;;;;18.98;14.87;;;;;;;;;;751758;185;920137;-56
2022/09/04 02:05:08;;;;;;;20.30;15.77;;;;;;;;;;748473;187;918345;-55
2022/09/04 02:07:44;;;;;;;21.63;15.70;;;;;;;;;;754412;184;819925;-55
2022/09/04 02:10:26;;;;;;;19.80;15.63;;;;;;;;;;751341;185;919017;-54
2022/09/04 02:12:57;;;;;;;19.50;14.83;;;;;;;;;;752834;185;823258;-55
2022/09/04 02:15:29;;;;;;;19.60;16.10;;;;;;;;;;747908;185;914931;-56
2022/09/04 02:17:58;;;;;;;19.70;16.17;;;;;;;;;;752795;185;918853;-55
2022/09/04 02:20:24;;;;;;;20.50;16.30;;;;;;;;;;761384;183;921131;-56
2022/09/04 02:22:51;;;;;;;20.47;16.13;;;;;;;;;;747284;185;912044;-55
2022/09/04 02:25:23;;;;;;;20.27;15.23;;;;;;;;;;746752;186;917772;-55
2022/09/04 02:27:54;;;;;;;21.43;17.70;;;;;;;;;;756305;184;919546;-55
2022/09/04 02:30:20;;;;;;;25.20;16.03;;;;;;;;;;753755;183;930373;-56
2022/09/04 02:32:47;;;;;;;24.23;17.17;;;;;;;;;;747881;185;919591;-55
2022/09/04 02:35:13;;;;;;;21.23;16.23;;;;;;;;;;751943;185;916314;-55
2022/09/04 02:37:51;;;;;;;21.30;15.63;;;;;;;;;;751721;185;919601;-56
2022/09/04 02:40:33;;;;;;;22.30;17.40;;;;;;;;;;760432;184;919753;-56
2022/09/04 02:43:03;;;;;;;24.17;19.23;;;;;;;;;;755686;184;919644;-56
2022/09/04 02:45:32;;;;;;;21.03;16.20;;;;;;;;;;756510;184;920172;-56
2022/09/04 02:48:14;;;;;;;23.73;17.00;;;;;;;;;;749472;184;918780;-55
2022/09/04 02:50:46;;;;;;;24.27;17.00;;;;;;;;;;756193;184;919757;-56
2022/09/04 02:53:28;;;;;;;22.27;16.67;;;;;;;;;;758146;184;920418;-56
2022/09/04 02:55:56;;;;;;;21.93;18.03;;;;;;;;;;754282;184;877616;-56
2022/09/04 02:58:24;;;;;;;21.50;18.13;;;;;;;;;;757027;184;920016;-55
2022/09/04 03:00:52;;;;;;;24.87;19.20;;;;;;;;;;755360;185;817670;-55
2022/09/04 03:03:16;;;;;;;25.27;18.47;;;;;;;;;;748187;184;819243;-55
2022/09/04 03:06:00;;;;;;;25.13;19.17;;;;;;;;;;757729;184;919589;-56
2022/09/04 03:08:28;;;;;;;24.33;18.87;;;;;;;;;;751197;184;921356;-56
2022/09/04 03:10:55;;;;;;;25.12;20.00;;;;;;;;;;760184;185;919865;-55
2022/09/04 03:13:27;;;;;;;22.50;17.83;;;;;;;;;;759123;184;916618;-56
2022/09/04 03:16:08;;;;;;;27.63;18.10;;;;;;;;;;755972;182;916408;-56
2022/09/04 03:18:40;;;;;;;33.43;19.13;;;;;;;;;;755751;183;920783;-55
2022/09/04 03:21:08;;;;;;;23.85;17.90;;;;;;;;;;752179;185;920270;-55
2022/09/04 03:23:37;;;;;;;23.60;18.77;;;;;;;;;;757208;184;919685;-56
2022/09/04 03:26:06;;;;;;;25.17;18.23;;;;;;;;;;752401;185;916135;-56
2022/09/04 03:28:35;;;;;;;25.93;19.23;;;;;;;;;;750151;185;917365;-55
2022/09/04 03:31:00;;;;;;;26.00;18.87;;;;;;;;;;750083;185;923851;-56
2022/09/04 03:33:27;;;;;;;25.47;20.23;;;;;;;;;;752425;185;919140;-55
2022/09/04 03:35:56;;;;;;;24.63;18.55;;;;;;;;;;754707;184;919771;-56
2022/09/04 03:38:24;;;;;;;26.87;19.40;;;;;;;;;;755756;184;920142;-55
2022/09/04 03:41:03;;;;;;;24.23;18.77;;;;;;;;;;750659;184;918853;-56
2022/09/04 03:43:35;;;;;;;25.60;20.50;;;;;;;;;;762148;183;918676;-55
2022/09/04 03:46:15;;;;;;;24.07;18.43;;;;;;;;;;760878;184;868385;-56
2022/09/04 03:48:43;;;;;;;28.10;18.90;;;;;;;;;;756544;185;816238;-55
2022/09/04 03:51:10;;;;;;;33.33;23.17;;;;;;;;;;757438;184;919819;-55
2022/09/04 03:53:40;;;;;;;28.23;19.73;;;;;;;;;;748966;181;920403;-56
2022/09/04 03:56:20;;;;;;;27.97;20.20;;;;;;;;;;760972;184;916287;-55
2022/09/04 03:58:48;;;;;;;28.17;20.00;;;;;;;;;;756633;184;913313;-56
2022/09/04 04:01:31;;;;;;;26.70;20.40;;;;;;;;;;753096;184;868206;-55
2022/09/04 04:04:15;;;;;;;28.40;20.70;;;;;;;;;;756824;184;917851;-56
2022/09/04 04:06:41;;;;;;;28.93;23.20;;;;;;;;;;757874;184;920060;-56
2022/09/04 04:09:13;;;;;;;27.67;20.67;;;;;;;;;;756456;184;920377;-55
2022/09/04 04:11:53;;;;;;;32.00;22.17;;;;;;;;;;753616;184;919632;-55
2022/09/04 04:14:25;;;;;;;31.33;20.60;;;;;;;;;;755611;180;918832;-54
2022/09/04 04:17:05;;;;;;;29.17;21.17;;;;;;;;;;755464;185;918887;-55
2022/09/04 04:19:41;;;;;;;29.63;22.87;;;;;;;;;;746095;188;916019;-54
2022/09/04 04:22:08;;;;;;;25.47;20.20;;;;;;;;;;757400;185;920345;-55
2022/09/04 04:24:40;;;;;;;30.03;21.23;;;;;;;;;;749021;186;915353;-55
2022/09/04 04:27:10;;;;;;;31.33;24.03;;;;;;;;;;750522;185;915830;-55
2022/09/04 04:29:37;;;;;;;31.60;23.50;;;;;;;;;;755461;184;816683;-55
2022/09/04 04:32:09;;;;;;;29.63;22.00;;;;;;;;;;759608;184;919324;-56
2022/09/04 04:34:37;;;;;;;32.47;22.50;;;;;;;;;;752738;185;886263;-55
2022/09/04 04:37:04;;;;;;;33.00;23.07;;;;;;;;;;749998;182;920550;-55
2022/09/04 04:39:31;;;;;;;32.47;21.93;;;;;;;;;;748288;183;918771;-55
2022/09/04 04:42:12;;;;;;;29.63;21.00;;;;;;;;;;759721;182;919483;-55
2022/09/04 04:47:16;;;;;;;33.27;22.87;;;;;;;;;;759247;185;916783;-54
2022/09/04 04:49:44;;;;;;;30.43;22.03;;;;;;;;;;750125;184;918282;-56
2022/09/04 04:52:17;;;;;;;31.00;22.37;;;;;;;;;;753352;185;919733;-55
2022/09/04 04:55:05;;;;;;;33.17;21.30;;;;;;;;;;751584;182;1128271;-55
2022/09/04 04:57:42;;;;;;;31.57;21.77;;;;;;;;;;754095;185;919592;-55
2022/09/04 05:00:17;;;;;;;31.52;22.02;;;;;;;;;;747506;185;919561;-55
2022/09/04 05:02:39;;;;;;;32.60;21.03;;;;;;;;;;751066;185;916289;-55
2022/09/04 05:05:12;;;;;;;25.30;19.60;;;;;;;;;;747699;185;919075;-55
2022/09/04 05:07:37;;;;;;;29.33;20.37;;;;;;;;;;756129;183;920308;-54
2022/09/04 05:10:05;;;;;;;31.52;20.73;;;;;;;;;;755115;184;922579;-55
2022/09/04 05:12:36;;;;;;;27.00;20.30;;;;;;;;;;752255;184;919607;-55
2022/09/04 05:15:06;;;;;;;25.77;20.03;;;;;;;;;;756239;184;819551;-55
2022/09/04 05:17:48;;;;;;;30.80;22.70;;;;;;;;;;754769;184;920457;-54
2022/09/04 05:20:17;;;;;;;28.97;20.20;;;;;;;;;;747998;184;920050;-56
2022/09/04 05:22:44;;;;;;;28.17;19.97;;;;;;;;;;753594;182;919148;-57
2022/09/04 05:25:12;;;;;;;31.37;21.20;;;;;;;;;;761217;184;925371;-57
2022/09/04 05:27:38;;;;;;;26.77;21.50;;;;;;;;;;753722;185;915342;-58
2022/09/04 05:30:04;;;;;;;30.00;21.37;;;;;;;;;;755774;184;813954;-57
2022/09/04 05:32:32;;;;;;;30.27;21.30;;;;;;;;;;757993;184;817900;-57
2022/09/04 05:34:59;;;;;;;31.80;22.40;;;;;;;;;;754906;184;916484;-57
2022/09/04 05:37:26;;;;;;;29.23;21.07;;;;;;;;;;747515;182;919637;-55
2022/09/04 05:39:58;;;;;;;27.53;20.93;;;;;;;;;;751803;182;816491;-57
2022/09/04 05:42:30;;;;;;;27.83;20.90;;;;;;;;;;756930;184;912355;-57
2022/09/04 05:44:56;;;;;;;28.90;21.60;;;;;;;;;;758759;184;919333;-56
2022/09/04 05:47:27;;;;;;;33.00;23.93;;;;;;;;;;756077;184;896316;-56
2022/09/04 05:49:58;;;;;;;30.97;23.67;;;;;;;;;;755465;184;910173;-57
2022/09/04 05:52:29;;;;;;;29.00;22.20;;;;;;;;;;752707;185;917285;-55
2022/09/04 05:55:15;;;;;;;27.40;21.70;;;;;;;;;;761322;184;917910;-55
2022/09/04 05:57:57;;;;;;;27.63;21.77;;;;;;;;;;760226;184;919380;-56
2022/09/04 06:00:23;;;;;;;29.53;19.80;;;;;;;;;;758557;184;918636;-56
2022/09/04 06:03:04;;;;;;;32.20;20.57;;;;;;;;;;754630;184;920042;-54
2022/09/04 06:05:46;;;;;;;31.00;21.27;;;;;;;;;;748932;185;919167;-55
2022/09/04 06:08:17;;;;;;;34.20;21.30;;;;;;;;;;754950;184;919970;-54
2022/09/04 06:11:01;;;;;;;30.67;22.40;;;;;;;;;;753650;184;916069;-55
2022/09/04 06:13:30;;;;;;;32.28;22.00;;;;;;;;;;747882;184;920957;-54
2022/09/04 06:15:57;;;;;;;31.50;23.03;;;;;;;;;;755218;183;818690;-55
2022/09/04 06:18:29;;;;;;;35.57;24.97;;;;;;;;;;760985;184;815087;-54
2022/09/04 06:21:02;;;;;;;32.37;23.93;;;;;;;;;;756007;182;915699;-55
2022/09/04 06:23:33;;;;;;;39.83;24.00;;;;;;;;;;755325;182;919107;-54
2022/09/04 06:26:00;;;;;;;39.23;23.10;;;;;;;;;;753757;184;918660;-55
2022/09/04 06:28:26;;;;;;;34.10;24.13;;;;;;;;;;753926;184;814877;-53
2022/09/04 06:30:55;;;;;;;38.77;22.37;;;;;;;;;;756928;184;918806;-54
2022/09/04 06:33:23;;;;;;;38.88;22.83;;;;;;;;;;748967;184;919532;-54
2022/09/04 06:35:54;;;;;;;36.00;24.30;;;;;;;;;;746489;185;920049;-54
2022/09/04 06:38:36;;;;;;;36.70;24.30;;;;;;;;;;757738;184;919341;-54
2022/09/04 06:41:08;;;;;;;35.10;24.40;;;;;;;;;;759224;184;913885;-54
2022/09/04 06:43:39;;;;;;;33.20;23.93;;;;;;;;;;760434;185;845432;-55
2022/09/04 06:46:11;;;;;;;30.70;24.13;;;;;;;;;;749900;184;920664;-56
2022/09/04 06:48:42;;;;;;;32.53;23.77;;;;;;;;;;750381;185;916597;-55
2022/09/04 06:51:22;;;;;;;29.03;21.60;;;;;;;;;;753306;184;919912;-55
2022/09/04 06:53:53;;;;;;;35.03;24.90;;;;;;;;;;752186;184;919059;-56
2022/09/04 06:56:21;;;;;;;32.07;24.63;;;;;;;;;;753488;185;918455;-55
2022/09/04 06:58:51;;;;;;;34.83;24.93;;;;;;;;;;753592;185;818956;-54
2022/09/04 07:01:18;;;;;;;34.20;24.60;;;;;;;;;;753135;184;926729;-54
2022/09/04 07:03:46;;;;;;;35.38;23.50;;;;;;;;;;748822;185;919372;-55
2022/09/04 07:06:18;;;;;;;37.30;23.47;;;;;;;;;;757035;184;815986;-54
2022/09/04 07:09:01;;;;;;;37.30;26.80;;;;;;;;;;757085;183;817406;-54
2022/09/04 07:11:42;;;;;;;32.77;23.40;;;;;;;;;;755530;183;920059;-54
2022/09/04 07:14:15;;;;;;;29.53;23.10;;;;;;;;;;752430;181;816251;-54
2022/09/04 07:16:41;;;;;;;27.30;21.50;;;;;;;;;;749996;185;818679;-54
2022/09/04 07:19:12;;;;;;;31.52;23.52;;;;;;;;;;753532;184;920114;-54
2022/09/04 07:21:40;;;;;;;31.37;23.63;;;;;;;;;;757546;184;902555;-54
2022/09/04 07:24:23;;;;;;;36.13;24.80;;;;;;;;;;752448;185;916204;-54
2022/09/04 07:26:51;;;;;;;32.43;22.93;;;;;;;;;;762874;182;825698;-53
2022/09/04 07:29:18;;;;;;;34.17;24.27;;;;;;;;;;756734;184;893852;-55
2022/09/04 07:31:43;;;;;;;35.13;24.10;;;;;;;;;;754912;184;919528;-55
2022/09/04 07:34:24;;;;;;;27.93;21.80;;;;;;;;;;753577;184;918990;-54
2022/09/04 07:36:53;;;;;;;34.37;23.37;;;;;;;;;;757589;184;916088;-54
2022/09/04 07:39:32;;;;;;;28.43;23.10;;;;;;;;;;752067;184;920809;-54
2022/09/04 07:42:04;;;;;;;25.97;20.27;;;;;;;;;;752728;184;905234;-54
2022/09/04 07:44:33;;;;;;;26.80;22.40;;;;;;;;;;755969;184;841479;-54
2022/09/04 07:47:00;;;;;;;29.37;22.30;;;;;;;;;;752801;184;939216;-54
2022/09/04 07:49:28;;;;;;;30.00;22.90;;;;;;;;;;750597;185;930955;-54
2022/09/04 07:51:54;;;;;;;31.67;23.57;;;;;;;;;;756310;184;919120;-54
2022/09/04 07:54:26;;;;;;;32.63;24.50;;;;;;;;;;752386;185;813945;-53
2022/09/04 07:57:02;;;;;;;35.63;24.80;;;;;;;;;;753421;185;812465;-54
2022/09/04 07:59:33;;;;;;;33.37;23.97;;;;;;;;;;756872;184;819615;-53
2022/09/04 08:02:05;;;;;;;31.10;25.50;;;;;;;;;;759187;184;814827;-54
2022/09/04 08:04:46;;;;;;;35.03;26.03;;;;;;;;;;750240;185;919745;-53
2022/09/04 08:07:13;;;;;;;37.97;28.63;;;;;;;;;;750178;185;920107;-53
2022/09/04 08:09:43;;;;;;;32.97;24.50;;;;;;;;;;754753;184;869038;-53
2022/09/04 08:12:13;;;;;;;31.20;25.15;;;;;;;;;;747965;185;919502;-55
2022/09/04 08:14:37;;;;;;;37.47;24.87;;;;;;;;;;761169;182;938874;-53
2022/09/04 08:17:24;;;;;;;32.73;24.67;;;;;;;;;;749522;185;919720;-53
2022/09/04 08:19:50;;;;;;;34.53;25.20;;;;;;;;;;760177;182;919458;-53
2022/09/04 08:22:17;;;;;;;35.97;27.90;;;;;;;;;;754580;184;919075;-53
2022/09/04 08:24:48;;;;;;;32.97;23.97;;;;;;;;;;753953;185;919662;-52
2022/09/04 08:27:27;;;;;;;31.97;24.07;;;;;;;;;;757737;185;919957;-53
2022/09/04 08:29:56;;;;;;;28.10;21.63;;;;;;;;;;756133;183;913729;-53
2022/09/04 08:32:36;;;;;;;27.83;22.43;;;;;;;;;;748528;185;922930;-53
2022/09/04 08:35:05;;;;;;;26.00;20.50;;;;;;;;;;751916;181;817863;-53
2022/09/04 08:37:35;;;;;;;25.87;20.30;;;;;;;;;;748695;181;819257;-53
2022/09/04 08:40:16;;;;;;;24.23;19.87;;;;;;;;;;761229;184;822093;-53
2022/09/04 08:42:48;;;;;;;27.83;21.13;;;;;;;;;;760502;184;920123;-53
2022/09/04 08:45:32;;;;;;;24.50;21.07;;;;;;;;;;763780;184;817023;-54
2022/09/04 08:47:58;;;;;;;27.40;21.70;;;;;;;;;;761072;184;920106;-53
2022/09/04 08:50:44;;;;;;;25.53;21.37;;;;;;;;;;754125;184;939305;-54
2022/09/04 08:53:21;;;;;;;24.27;19.37;;;;;;;;;;748806;184;919492;-54
2022/09/04 08:56:05;;;;;;;28.20;22.77;;;;;;;;;;754991;184;919204;-53
2022/09/04 08:58:35;;;;;;;28.93;23.70;;;;;;;;;;748077;185;919654;-54
2022/09/04 09:01:18;;;;;;;29.97;23.00;;;;;;;;;;753288;183;918598;-53
2022/09/04 09:03:44;;;;;;;29.20;21.37;;;;;;;;;;748914;184;921194;-53
2022/09/04 09:06:15;;;;;;;26.70;21.17;;;;;;;;;;759878;184;820074;-54
2022/09/04 09:08:46;;;;;;;22.30;17.47;;;;;;;;;;753082;185;918664;-53
2022/09/04 09:11:27;;;;;;;21.60;17.23;;;;;;;;;;754043;184;919583;-53
2022/09/04 09:13:58;;;;;;;26.90;18.20;;;;;;;;;;754785;183;919368;-54
2022/09/04 09:16:24;;;;;;;24.40;18.70;;;;;;;;;;750338;185;917576;-54
2022/09/04 09:18:56;;;;;;;24.37;18.93;;;;;;;;;;751060;185;916652;-53
2022/09/04 09:21:28;;;;;;;17.83;15.33;;;;;;;;;;759594;184;804596;-53
2022/09/04 09:24:12;;;;;;;20.27;17.33;;;;;;;;;;748733;184;920658;-54
2022/09/04 09:26:38;;;;;;;23.00;17.03;;;;;;;;;;753891;184;919316;-53
2022/09/04 09:29:05;;;;;;;16.43;14.60;;;;;;;;;;748516;184;869665;-54
2022/09/04 09:31:48;;;;;;;13.70;12.07;;;;;;;;;;747022;183;955240;-54
2022/09/04 09:34:31;;;;;;;14.80;12.27;;;;;;;;;;748635;185;856015;-54
2022/09/04 09:37:16;;;;;;;20.07;10.80;;;;;;;;;;753309;184;919739;-53
2022/09/04 09:39:47;;;;;;;11.63;10.17;;;;;;;;;;750473;184;919592;-56
2022/09/04 09:42:14;;;;;;;15.07;12.40;;;;;;;;;;759628;184;855113;-53
2022/09/04 09:44:57;;;;;;;13.70;11.60;;;;;;;;;;747902;185;859085;-54
2022/09/04 09:47:40;;;;;;;15.00;10.53;;;;;;;;;;749618;184;820007;-53
2022/09/04 09:50:09;;;;;;;12.90;10.50;;;;;;;;;;750893;182;920026;-54
2022/09/04 09:52:47;;;;;;;9.87;8.00;;;;;;;;;;751025;184;919566;-57
2022/09/04 09:55:13;;;;;;;11.13;8.57;;;;;;;;;;753720;184;919537;-54
2022/09/04 09:57:39;;;;;;;10.17;8.27;;;;;;;;;;754046;184;919772;-55
2022/09/04 10:00:05;;;;;;;9.47;8.47;;;;;;;;;;752705;184;919322;-54
2022/09/04 10:02:48;;;;;;;8.30;7.10;;;;;;;;;;756835;183;919616;-53
2022/09/04 10:05:13;;;;;;;9.07;7.80;;;;;;;;;;750702;182;919457;-54
2022/09/04 10:07:43;;;;;;;9.37;7.20;;;;;;;;;;755512;184;920852;-54
2022/09/04 10:10:09;;;;;;;12.10;8.10;;;;;;;;;;753243;184;856061;-54
2022/09/04 10:12:38;;;;;;;9.80;8.77;;;;;;;;;;753719;185;922722;-54
2022/09/04 10:15:18;;;;;;;8.70;7.80;;;;;;;;;;747738;185;917949;-53
2022/09/04 10:18:01;;;;;;;10.93;7.90;;;;;;;;;;756661;183;919404;-54
2022/09/04 10:20:45;;;;;;;9.23;7.50;;;;;;;;;;749729;185;909348;-54
2022/09/04 10:23:11;;;;;;;9.97;7.57;;;;;;;;;;752298;184;918618;-53
2022/09/04 10:25:43;;;;;;;13.93;8.37;;;;;;;;;;752566;185;849120;-55
2022/09/04 10:28:17;;;;;;;9.93;7.83;;;;;;;;;;755919;185;727214;-54
2022/09/04 10:30:48;;;;;;;8.73;7.83;;;;;;;;;;758893;184;817521;-54
2022/09/04 10:33:17;;;;;;;10.73;8.97;;;;;;;;;;752548;184;918422;-54
2022/09/04 10:35:45;;;;;;;9.48;7.25;;;;;;;;;;752302;184;919142;-54
2022/09/04 10:38:13;;;;;;;10.90;8.80;;;;;;;;;;749038;185;916940;-55
2022/09/04 10:40:54;;;;;;;8.40;6.83;;;;;;;;;;756178;185;919635;-54
2022/09/04 10:43:25;;;;;;;7.80;7.00;;;;;;;;;;762492;183;862308;-54
2022/09/04 10:45:56;;;;;;;8.17;7.20;;;;;;;;;;749877;184;920218;-54
2022/09/04 10:48:26;;;;;;;7.87;7.03;;;;;;;;;;750534;184;917289;-54
2022/09/04 10:50:56;;;;;;;8.73;7.83;;;;;;;;;;749205;184;919493;-54
2022/09/04 10:53:37;;;;;;;7.33;6.60;;;;;;;;;;760362;184;626772;-54
2022/09/04 10:56:05;;;;;;;8.77;7.93;;;;;;;;;;761612;184;898624;-55
2022/09/04 10:58:31;;;;;;;8.17;7.33;;;;;;;;;;750925;180;923447;-54
2022/09/04 11:01:17;;;;;;;9.40;8.10;;;;;;;;;;754090;184;920408;-54
2022/09/04 11:03:49;;;;;;;9.10;7.70;;;;;;;;;;751408;183;819736;-54
2022/09/04 11:06:30;;;;;;;9.70;7.78;;;;;;;;;;755532;184;919443;-54
2022/09/04 11:08:59;;;;;;;10.93;8.93;;;;;;;;;;751672;184;818444;-55
2022/09/04 11:11:30;;;;;;;8.03;7.23;;;;;;;;;;758883;184;822057;-54
2022/09/04 11:14:04;;;;;;;10.10;7.80;;;;;;;;;;750694;184;817191;-55
2022/09/04 11:16:28;;;;;;;8.10;6.77;;;;;;;;;;752466;184;919162;-55
2022/09/04 11:19:09;;;;;;;9.93;7.60;;;;;;;;;;753785;183;917229;-56
2022/09/04 11:21:40;;;;;;;9.47;7.20;;;;;;;;;;753045;184;921068;-54
2022/09/04 11:24:07;;;;;;;8.63;7.47;;;;;;;;;;757249;184;919854;-54
2022/09/04 11:26:38;;;;;;;7.97;6.87;;;;;;;;;;751619;184;919157;-53
2022/09/04 11:29:09;;;;;;;10.00;7.20;;;;;;;;;;751997;182;919554;-54
2022/09/04 11:31:34;;;;;;;7.82;7.03;;;;;;;;;;752319;184;919299;-54
2022/09/04 11:34:10;;;;;;;9.30;7.47;;;;;;;;;;750671;185;927814;-53
2022/09/04 11:36:53;;;;;;;10.07;7.30;;;;;;;;;;761706;184;818509;-54
2022/09/04 11:39:25;;;;;;;8.80;6.63;;;;;;;;;;758097;182;920171;-54
2022/09/04 11:41:57;;;;;;;12.80;8.23;;;;;;;;;;747570;182;919736;-54
2022/09/04 11:44:45;;;;;;;11.03;7.23;;;;;;;;;;752476;184;921275;-54
2022/09/04 11:47:10;;;;;;;8.70;6.83;;;;;;;;;;751659;184;922008;-54
2022/09/04 11:49:50;;;;;;;8.97;7.57;;;;;;;;;;749513;185;919497;-54
2022/09/04 11:52:33;;;;;;;10.40;8.07;;;;;;;;;;752598;184;920245;-54
2022/09/04 11:55:18;;;;;;;7.70;6.40;;;;;;;;;;751147;184;907335;-53
2022/09/04 11:57:43;;;;;;;9.57;7.43;;;;;;;;;;749104;185;816590;-54
2022/09/04 12:00:11;;;;;;;8.77;7.60;;;;;;;;;;759493;184;918159;-54
2022/09/04 12:02:41;;;;;;;12.80;8.00;;;;;;;;;;754393;185;918184;-54
2022/09/04 12:05:06;;;;;;;10.80;8.30;;;;;;;;;;748765;185;919699;-54
2022/09/04 12:07:32;;;;;;;9.47;8.10;;;;;;;;;;754152;184;919354;-55
2022/09/04 12:10:08;;;;;;;9.30;8.40;;;;;;;;;;752829;185;918798;-53
2022/09/04 12:12:49;;;;;;;10.40;7.53;;;;;;;;;;757924;183;919502;-53
2022/09/04 12:15:29;;;;;;;9.82;8.10;;;;;;;;;;755041;183;920199;-55
2022/09/04 12:17:58;;;;;;;9.33;7.70;;;;;;;;;;755999;181;921468;-53
2022/09/04 12:20:41;;;;;;;8.50;7.43;;;;;;;;;;749751;182;919591;-54
2022/09/04 12:23:11;;;;;;;11.93;9.97;;;;;;;;;;755155;183;916313;-54
2022/09/04 12:25:52;;;;;;;12.10;8.50;;;;;;;;;;756745;183;897217;-54
2022/09/04 12:28:25;;;;;;;10.87;8.70;;;;;;;;;;746860;183;920733;-54
2022/09/04 12:30:51;;;;;;;9.47;8.47;;;;;;;;;;757081;183;921532;-54
2022/09/04 12:33:32;;;;;;;9.17;7.70;;;;;;;;;;756464;182;919447;-54
2022/09/04 12:36:16;;;;;;;9.00;7.50;;;;;;;;;;749537;185;919990;-54
2022/09/04 12:38:46;;;;;;;12.03;8.23;;;;;;;;;;757360;184;919148;-54
2022/09/04 12:41:17;;;;;;;10.50;8.57;;;;;;;;;;755084;183;914910;-54
2022/09/04 12:43:44;;;;;;;10.27;9.10;;;;;;;;;;757342;182;905970;-54
2022/09/04 12:46:13;;;;;;;9.10;8.17;;;;;;;;;;753199;185;876080;-53
2022/09/04 12:48:53;;;;;;;10.03;8.80;;;;;;;;;;753173;185;919578;-54
2022/09/04 12:51:23;;;;;;;9.33;8.40;;;;;;;;;;756054;182;919959;-55
2022/09/04 12:53:47;;;;;;;9.20;7.43;;;;;;;;;;747841;184;921319;-54
2022/09/04 12:56:15;;;;;;;9.37;7.23;;;;;;;;;;748443;185;920237;-54
2022/09/04 12:58:58;;;;;;;11.17;8.17;;;;;;;;;;756323;184;919587;-54
2022/09/04 13:01:22;;;;;;;10.40;8.23;;;;;;;;;;763585;183;918588;-53
2022/09/04 13:03:54;;;;;;;16.10;8.83;;;;;;;;;;753193;185;721998;-54
2022/09/04 13:06:20;;;;;;;8.90;7.90;;;;;;;;;;747582;185;915637;-54
2022/09/04 13:08:46;;;;;;;10.30;8.20;;;;;;;;;;750887;185;818563;-56
2022/09/04 13:11:18;;;;;;;8.87;8.00;;;;;;;;;;758083;184;920279;-54
2022/09/04 13:13:50;;;;;;;9.47;8.23;;;;;;;;;;755459;184;821494;-55
2022/09/04 13:16:21;;;;;;;9.23;7.80;;;;;;;;;;754821;184;926888;-54
2022/09/04 13:18:50;;;;;;;8.87;8.00;;;;;;;;;;751526;184;920132;-54
2022/09/04 13:21:17;;;;;;;8.10;7.27;;;;;;;;;;753363;185;919523;-54
2022/09/04 13:23:49;;;;;;;9.10;8.20;;;;;;;;;;756899;183;816971;-54
2022/09/04 13:26:23;;;;;;;8.60;7.03;;;;;;;;;;753207;182;918622;-54
2022/09/04 13:28:48;;;;;;;10.20;7.93;;;;;;;;;;754770;184;917395;-54
2022/09/04 13:31:24;;;;;;;11.40;7.77;;;;;;;;;;754233;184;911445;-55
2022/09/04 13:34:08;;;;;;;11.20;7.40;;;;;;;;;;761452;184;919906;-55
2022/09/04 13:36:39;;;;;;;10.87;8.30;;;;;;;;;;761203;184;816725;-56
2022/09/04 13:39:20;;;;;;;7.80;7.00;;;;;;;;;;753873;182;918845;-53
2022/09/04 13:41:49;;;;;;;8.68;7.85;;;;;;;;;;756779;184;817743;-57
2022/09/04 13:44:20;;;;;;;9.90;8.87;;;;;;;;;;749757;182;918863;-54
2022/09/04 13:46:46;;;;;;;9.77;8.77;;;;;;;;;;753268;184;919489;-55
2022/09/04 13:49:16;;;;;;;10.80;8.03;;;;;;;;;;757529;184;920023;-55
2022/09/04 13:51:43;;;;;;;9.00;7.97;;;;;;;;;;756291;184;920021;-54
2022/09/04 13:54:10;;;;;;;8.30;7.07;;;;;;;;;;751261;182;922284;-54
2022/09/04 13:56:39;;;;;;;12.13;8.30;;;;;;;;;;754255;184;919789;-55
2022/09/04 13:59:08;;;;;;;10.90;7.23;;;;;;;;;;756634;185;918047;-54
2022/09/04 14:01:31;;;;;;;9.40;8.40;;;;;;;;;;751585;185;919850;-54
2022/09/04 14:04:00;;;;;;;8.53;7.60;;;;;;;;;;752111;185;823827;-54
2022/09/04 14:06:26;;;;;;;12.48;7.53;;;;;;;;;;751461;185;818975;-55
2022/09/04 14:08:52;;;;;;;6.87;6.17;;;;;;;;;;750297;185;813825;-55
2022/09/04 14:11:24;;;;;;;7.27;6.50;;;;;;;;;;750187;183;916300;-54
2022/09/04 14:13:52;;;;;;;6.77;6.07;;;;;;;;;;754460;184;918462;-54
2022/09/04 14:16:18;;;;;;;7.43;6.23;;;;;;;;;;754931;185;919415;-54
2022/09/04 14:18:49;;;;;;;8.07;6.93;;;;;;;;;;753806;184;919876;-54
2022/09/04 14:21:23;;;;;;;11.70;6.17;;;;;;;;;;753496;184;919571;-54
2022/09/04 14:23:51;;;;;;;10.57;6.73;;;;;;;;;;752176;182;919853;-54
2022/09/04 14:26:16;;;;;;;9.68;7.30;;;;;;;;;;756448;184;920002;-54
2022/09/04 14:28:43;;;;;;;7.60;6.90;;;;;;;;;;750492;185;916659;-54
2022/09/04 14:31:11;;;;;;;10.63;6.77;;;;;;;;;;749350;184;920380;-54
2022/09/04 14:33:38;;;;;;;8.87;6.53;;;;;;;;;;752422;184;919352;-54
2022/09/04 14:36:03;;;;;;;6.57;5.87;;;;;;;;;;759570;184;949893;-55
2022/09/04 14:38:34;;;;;;;8.33;6.17;;;;;;;;;;759640;181;817699;-55
2022/09/04 14:41:00;;;;;;;6.20;5.60;;;;;;;;;;750563;184;919538;-54